Time;durP1;ratioP1;P1;durP2;ratioP2;P2;SDS_P1;SDS_P2;PMS_P1;PMS_P2;Temp;Humidity;BMP_temperature;BMP_pressure;BME280_temperature;BME280_humidity;BME280_pressure;Samples;Min_cycle;Max_cycle;Signal;HPM_P1;HPM_P2
2022/03/18 00:00:56;;;;;;;4.03;1.20;;;7.30;61.80;;;;;;5052301;28;20076;-62
2022/03/18 00:03:22;;;;;;;4.00;1.13;;;7.30;62.70;;;;;;5067296;28;20052;-62
2022/03/18 00:05:48;;;;;;;5.38;1.38;;;7.20;62.20;;;;;;5051442;28;20059;-62
2022/03/18 00:08:14;;;;;;;4.03;1.65;;;7.10;62.30;;;;;;5050517;28;20479;-63
2022/03/18 00:10:40;;;;;;;7.30;1.27;;;7.10;62.30;;;;;;5051471;28;20037;-61
2022/03/18 00:13:06;;;;;;;2.50;1.35;;;7.10;62.50;;;;;;5048727;28;20102;-61
2022/03/18 00:15:32;;;;;;;2.67;0.73;;;7.00;62.70;;;;;;5049521;28;20083;-61
2022/03/18 00:17:58;;;;;;;4.03;1.27;;;7.00;63.00;;;;;;5063671;28;20052;-61
2022/03/18 00:20:24;;;;;;;6.18;1.75;;;7.00;63.30;;;;;;5052067;28;20025;-60
2022/03/18 00:22:50;;;;;;;4.20;0.95;;;6.90;63.10;;;;;;5051827;28;20395;-60
2022/03/18 00:25:18;;;;;;;3.83;1.63;;;6.90;63.10;;;;;;5049450;28;20443;-60
2022/03/18 00:27:44;;;;;;;2.85;1.23;;;6.90;63.20;;;;;;5050559;28;20037;-62
2022/03/18 00:30:12;;;;;;;5.65;1.40;;;6.90;63.50;;;;;;5051202;28;20055;-62
2022/03/18 00:32:41;;;;;;;7.13;1.70;;;6.80;63.70;;;;;;5051386;28;20025;-62
2022/03/18 00:35:08;;;;;;;2.75;1.38;;;6.80;63.90;;;;;;5051317;28;20025;-62
2022/03/18 00:37:35;;;;;;;3.33;1.48;;;6.80;64.10;;;;;;5050729;28;20032;-62
2022/03/18 00:40:01;;;;;;;9.02;2.15;;;6.70;64.20;;;;;;5050851;28;20040;-63
2022/03/18 00:42:27;;;;;;;5.60;1.42;;;6.70;64.20;;;;;;5051040;28;20115;-63
2022/03/18 00:44:53;;;;;;;3.08;1.63;;;6.70;64.40;;;;;;5051347;28;20115;-62
2022/03/18 00:52:48;;;;;;;2.30;1.50;;;6.60;65.00;;;;;;5050110;28;20079;-63
2022/03/18 00:55:13;;;;;;;2.65;1.35;;;6.60;65.20;;;;;;5050382;28;20037;-63
2022/03/18 00:57:39;;;;;;;6.55;2.45;;;6.50;65.40;;;;;;5049085;28;20215;-63
2022/03/18 01:00:06;;;;;;;2.67;1.25;;;6.50;65.50;;;;;;5049927;28;20128;-63
2022/03/18 01:02:32;;;;;;;5.07;2.05;;;6.50;65.60;;;;;;5050874;28;20035;-61
2022/03/18 01:04:57;;;;;;;7.25;1.85;;;6.40;65.80;;;;;;5048561;28;20041;-61
2022/03/18 01:07:23;;;;;;;8.57;2.05;;;6.30;65.80;;;;;;5050895;28;20041;-60
2022/03/18 01:09:49;;;;;;;5.68;2.17;;;6.30;65.80;;;;;;5050506;28;20453;-63
2022/03/18 01:12:15;;;;;;;11.38;2.38;;;6.30;65.80;;;;;;5050457;28;20507;-62
2022/03/18 01:14:40;;;;;;;2.78;1.40;;;6.30;66.20;;;;;;5050356;28;20126;-63
2022/03/18 01:17:06;;;;;;;6.82;1.48;;;6.20;66.40;;;;;;5048819;28;20033;-63
2022/03/18 01:19:32;;;;;;;6.20;1.55;;;6.20;66.70;;;;;;5050355;28;20507;-63
2022/03/18 01:21:57;;;;;;;8.50;1.30;;;6.20;66.80;;;;;;5050028;28;20359;-62
2022/03/18 01:24:23;;;;;;;3.08;1.40;;;6.10;66.80;;;;;;5051112;28;20037;-62
2022/03/18 01:26:49;;;;;;;4.80;1.80;;;6.10;66.90;;;;;;5048192;28;20075;-62
2022/03/18 01:29:15;;;;;;;6.18;1.58;;;6.10;67.10;;;;;;5048737;28;20064;-61
2022/03/18 01:31:42;;;;;;;5.25;1.70;;;6.00;67.10;;;;;;5032360;28;20033;-60
2022/03/18 01:34:09;;;;;;;5.00;1.80;;;6.00;67.40;;;;;;5050273;28;20514;-63
2022/03/18 01:36:34;;;;;;;5.22;1.60;;;6.00;67.60;;;;;;5049496;28;20491;-63
2022/03/18 01:39:00;;;;;;;2.88;1.05;;;6.00;67.70;;;;;;5050168;28;20036;-63
2022/03/18 01:41:26;;;;;;;3.38;1.20;;;6.00;67.80;;;;;;5048152;28;20559;-63
2022/03/18 01:43:52;;;;;;;2.35;1.17;;;5.90;67.80;;;;;;5048377;28;20032;-63
2022/03/18 01:46:18;;;;;;;3.28;1.23;;;5.90;67.70;;;;;;5048971;28;20056;-61
2022/03/18 01:48:44;;;;;;;3.35;1.17;;;5.90;67.80;;;;;;5049975;28;20036;-60
2022/03/18 01:51:15;;;;;;;2.50;1.55;;;5.90;67.80;;;;;;5049694;28;20035;-63
2022/03/18 01:53:43;;;;;;;2.28;1.05;;;5.80;67.70;;;;;;5049810;28;20025;-61
2022/03/18 01:56:09;;;;;;;6.43;1.50;;;5.90;67.60;;;;;;5049475;28;20488;-61
2022/03/18 01:58:35;;;;;;;4.07;1.10;;;5.90;67.60;;;;;;5047931;28;20021;-63
2022/03/18 02:01:02;;;;;;;10.45;2.22;;;5.80;67.50;;;;;;5047987;28;20162;-63
2022/03/18 02:03:28;;;;;;;5.45;1.58;;;5.80;67.40;;;;;;5037314;28;20091;-60
2022/03/18 02:05:53;;;;;;;1.88;1.15;;;5.80;67.60;;;;;;5049210;28;20429;-60
2022/03/18 02:08:20;;;;;;;4.43;1.45;;;5.80;68.50;;;;;;5049502;28;20071;-60
2022/03/18 02:10:46;;;;;;;5.00;1.30;;;5.80;68.40;;;;;;5048682;28;20512;-60
2022/03/18 02:13:12;;;;;;;6.55;1.45;;;5.70;68.60;;;;;;5047613;28;20546;-61
2022/03/18 02:15:38;;;;;;;3.97;1.70;;;5.70;68.70;;;;;;5049204;28;20166;-62
2022/03/18 02:18:05;;;;;;;4.78;1.80;;;5.70;68.80;;;;;;5048986;28;20036;-60
2022/03/18 02:20:34;;;;;;;5.28;1.40;;;5.70;68.80;;;;;;5049327;28;20499;-63
2022/03/18 02:23:01;;;;;;;2.40;1.48;;;5.60;68.80;;;;;;5049159;28;20162;-63
2022/03/18 02:25:27;;;;;;;6.28;2.13;;;5.60;68.90;;;;;;5049139;28;20106;-63
2022/03/18 02:27:58;;;;;;;3.92;1.60;;;5.60;69.10;;;;;;5048063;28;20507;-63
2022/03/18 02:30:26;;;;;;;4.65;1.50;;;5.50;69.20;;;;;;5048695;28;20025;-62
2022/03/18 02:32:52;;;;;;;3.33;1.40;;;5.50;69.30;;;;;;5049793;28;20033;-63
2022/03/18 02:35:19;;;;;;;6.13;1.67;;;5.50;69.50;;;;;;5048715;28;20091;-60
2022/03/18 02:37:44;;;;;;;6.18;1.65;;;5.40;69.60;;;;;;5048806;28;20033;-62
2022/03/18 02:40:10;;;;;;;3.17;1.65;;;5.40;69.80;;;;;;5048936;28;20130;-62
2022/03/18 02:42:36;;;;;;;2.08;1.40;;;5.30;69.90;;;;;;5047906;28;20095;-60
2022/03/18 02:45:02;;;;;;;3.55;1.67;;;5.30;70.00;;;;;;5048067;28;20044;-60
2022/03/18 02:47:28;;;;;;;6.13;1.73;;;5.30;70.10;;;;;;5047736;28;20476;-60
2022/03/18 02:49:53;;;;;;;3.65;1.70;;;5.30;70.90;;;;;;5048653;28;20040;-60
2022/03/18 02:52:19;;;;;;;3.50;1.52;;;5.20;70.40;;;;;;5048773;28;20086;-60
2022/03/18 02:54:45;;;;;;;6.55;2.30;;;5.20;70.40;;;;;;5048149;28;20021;-60
2022/03/18 02:57:12;;;;;;;6.95;1.50;;;5.20;70.40;;;;;;5048460;28;20100;-60
2022/03/18 02:59:38;;;;;;;4.80;1.80;;;5.20;70.40;;;;;;5048658;28;20043;-59
2022/03/18 03:02:04;;;;;;;3.60;1.80;;;5.10;70.60;;;;;;5048360;28;20033;-60
2022/03/18 03:04:30;;;;;;;7.07;1.58;;;5.10;70.80;;;;;;5048289;28;20140;-63
2022/03/18 03:09:39;;;;;;;9.88;1.95;;;5.10;70.70;;;;;;5048751;28;20048;-60
2022/03/18 03:12:05;;;;;;;5.97;2.42;;;5.10;70.80;;;;;;5047965;28;20025;-60
2022/03/18 03:14:31;;;;;;;4.43;1.98;;;5.10;70.90;;;;;;5047474;28;20068;-63
2022/03/18 03:16:56;;;;;;;3.30;1.52;;;5.00;71.20;;;;;;5046935;28;20036;-62
2022/03/18 03:19:22;;;;;;;7.30;2.17;;;5.10;71.40;;;;;;5047644;28;20435;-60
2022/03/18 03:21:48;;;;;;;6.72;1.92;;;5.10;71.60;;;;;;5049482;28;20067;-63
2022/03/18 03:24:14;;;;;;;6.32;2.50;;;5.00;71.40;;;;;;5034806;28;20108;-63
2022/03/18 03:26:40;;;;;;;10.27;1.92;;;5.00;71.30;;;;;;5051453;28;20110;-63
2022/03/18 03:29:06;;;;;;;7.75;2.28;;;5.00;71.50;;;;;;5052426;28;20040;-60
2022/03/18 03:31:31;;;;;;;4.13;1.05;;;5.00;71.70;;;;;;5052741;28;20021;-60
2022/03/18 03:33:57;;;;;;;3.13;1.85;;;4.90;71.90;;;;;;5048716;28;20032;-61
2022/03/18 03:36:23;;;;;;;4.38;1.63;;;4.90;72.10;;;;;;5050408;28;20087;-60
2022/03/18 03:38:49;;;;;;;3.85;1.65;;;4.90;72.00;;;;;;5037126;28;20357;-60
2022/03/18 03:41:15;;;;;;;3.30;1.30;;;4.90;72.00;;;;;;5050952;28;20033;-63
2022/03/18 03:43:41;;;;;;;4.28;1.48;;;4.90;72.10;;;;;;5046908;28;20432;-63
2022/03/18 03:46:07;;;;;;;3.55;1.40;;;4.90;72.30;;;;;;5050759;28;20106;-61
2022/03/18 03:48:33;;;;;;;4.88;1.50;;;4.90;72.30;;;;;;5032418;28;20037;-61
2022/03/18 03:51:00;;;;;;;4.07;1.85;;;4.90;72.70;;;;;;5035649;28;20047;-63
2022/03/18 03:53:26;;;;;;;2.45;1.30;;;4.80;71.90;;;;;;5048722;28;20033;-63
2022/03/18 03:55:51;;;;;;;5.97;1.50;;;4.80;71.90;;;;;;5047335;28;20107;-63
2022/03/18 03:58:17;;;;;;;10.02;2.10;;;4.80;72.20;;;;;;5030611;28;20033;-63
2022/03/18 04:00:43;;;;;;;10.50;1.67;;;4.80;72.50;;;;;;5059690;28;20033;-63
2022/03/18 04:03:08;;;;;;;1.42;1.05;;;4.80;72.70;;;;;;5041322;28;20064;-61
2022/03/18 04:05:35;;;;;;;3.25;1.75;;;4.80;72.90;;;;;;5038446;28;20051;-61
2022/03/18 04:08:02;;;;;;;4.82;1.98;;;4.80;73.10;;;;;;5050338;28;20021;-61
2022/03/18 04:10:28;;;;;;;8.85;2.30;;;4.80;73.10;;;;;;5051583;28;20041;-63
2022/03/18 04:12:54;;;;;;;3.40;1.60;;;4.70;73.10;;;;;;5051554;28;20029;-63
2022/03/18 04:15:21;;;;;;;4.90;1.40;;;4.70;73.00;;;;;;5051678;28;20111;-64
2022/03/18 04:17:48;;;;;;;6.50;2.45;;;4.70;73.10;;;;;;5051821;28;20025;-61
2022/03/18 04:20:27;;;;;;;2.03;1.08;;;4.70;73.20;;;;;;5051658;28;20041;-63
2022/03/18 04:22:53;;;;;;;4.00;1.23;;;4.70;73.50;;;;;;5051357;28;20111;-64
2022/03/18 04:25:22;;;;;;;6.63;2.25;;;4.70;73.40;;;;;;5051242;28;20377;-63
2022/03/18 04:27:48;;;;;;;6.38;1.75;;;4.60;73.30;;;;;;5065387;28;20404;-63
2022/03/18 04:30:14;;;;;;;3.55;1.17;;;4.60;73.30;;;;;;5051354;28;20032;-63
2022/03/18 04:32:41;;;;;;;7.63;2.22;;;4.60;73.30;;;;;;5051051;28;20041;-61
2022/03/18 04:35:07;;;;;;;3.60;2.03;;;4.60;73.40;;;;;;5050411;28;20070;-61
2022/03/18 04:37:33;;;;;;;6.60;2.15;;;4.60;73.50;;;;;;5050957;28;20426;-61
2022/03/18 04:39:59;;;;;;;4.70;1.67;;;4.60;73.70;;;;;;5051375;28;20045;-61
2022/03/18 04:42:24;;;;;;;4.53;1.83;;;4.50;73.50;;;;;;5049491;28;20056;-61
2022/03/18 04:44:50;;;;;;;3.67;2.08;;;4.50;73.50;;;;;;5049250;28;20435;-61
2022/03/18 04:47:16;;;;;;;3.95;1.55;;;4.50;73.50;;;;;;5049504;28;20029;-61
2022/03/18 04:49:41;;;;;;;3.88;1.73;;;4.50;73.30;;;;;;5051043;28;20112;-61
2022/03/18 04:52:07;;;;;;;5.05;2.35;;;4.50;73.10;;;;;;5049000;28;20154;-59
2022/03/18 04:54:33;;;;;;;3.85;1.73;;;4.50;73.10;;;;;;5050721;28;20040;-61
2022/03/18 04:59:44;;;;;;;4.18;1.55;;;4.50;73.10;;;;;;5050357;28;20431;-60
2022/03/18 05:02:13;;;;;;;16.27;1.40;;;4.40;72.90;;;;;;5050616;28;20025;-60
2022/03/18 05:04:41;;;;;;;5.38;1.98;;;4.40;72.90;;;;;;5050267;28;20743;-60
2022/03/18 05:07:07;;;;;;;3.72;1.23;;;4.40;73.00;;;;;;5050492;28;20031;-60
2022/03/18 05:09:33;;;;;;;5.90;2.13;;;4.40;72.90;;;;;;5038310;28;20385;-63
2022/03/18 05:11:59;;;;;;;3.33;1.63;;;4.40;72.90;;;;;;5044331;28;20033;-63
2022/03/18 05:14:25;;;;;;;2.42;1.95;;;4.40;72.90;;;;;;5049808;28;20025;-63
2022/03/18 05:16:52;;;;;;;7.85;1.70;;;4.40;73.10;;;;;;5050042;28;20071;-64
2022/03/18 05:19:18;;;;;;;7.03;1.98;;;4.40;73.10;;;;;;5049991;28;20403;-63
2022/03/18 05:21:43;;;;;;;3.38;1.90;;;4.40;73.10;;;;;;5049662;28;20029;-63
2022/03/18 05:24:09;;;;;;;4.25;2.05;;;4.30;73.70;;;;;;5050184;28;20047;-63
2022/03/18 05:26:37;;;;;;;4.75;2.05;;;4.30;73.10;;;;;;5049355;28;20037;-63
2022/03/18 05:29:03;;;;;;;4.38;2.30;;;4.30;73.10;;;;;;5050132;28;20032;-63
2022/03/18 05:31:31;;;;;;;7.45;1.80;;;4.30;73.30;;;;;;5049847;28;20419;-64
2022/03/18 05:33:57;;;;;;;4.30;1.85;;;4.30;73.30;;;;;;5050209;28;20450;-63
2022/03/18 05:36:23;;;;;;;11.35;2.60;;;4.30;73.30;;;;;;5048253;28;20021;-63
2022/03/18 05:38:48;;;;;;;6.80;2.80;;;4.30;73.50;;;;;;5045005;28;20446;-63
2022/03/18 05:41:14;;;;;;;3.35;2.00;;;4.30;73.80;;;;;;5043417;28;20026;-62
2022/03/18 05:43:40;;;;;;;9.63;2.25;;;4.20;73.80;;;;;;5048522;28;20378;-63
2022/03/18 05:46:07;;;;;;;4.28;1.92;;;4.20;73.80;;;;;;5048317;28;20055;-63
2022/03/18 05:48:33;;;;;;;7.60;2.20;;;4.20;73.80;;;;;;5049390;28;20029;-63
2022/03/18 05:51:00;;;;;;;5.15;2.72;;;4.20;73.70;;;;;;5049297;28;20052;-63
2022/03/18 05:53:26;;;;;;;4.75;2.75;;;4.20;73.60;;;;;;5045765;28;20057;-63
2022/03/18 05:58:36;;;;;;;8.88;2.88;;;4.20;73.90;;;;;;5049585;28;20039;-63
2022/03/18 06:01:03;;;;;;;3.83;1.80;;;4.20;73.90;;;;;;5047877;28;20486;-63
2022/03/18 06:03:29;;;;;;;3.33;2.35;;;4.10;73.80;;;;;;5048960;28;20055;-63
2022/03/18 06:05:54;;;;;;;7.10;2.60;;;4.20;74.00;;;;;;5048609;28;20472;-63
2022/03/18 06:13:49;;;;;;;8.07;2.58;;;4.20;74.10;;;;;;5048233;28;20048;-60
2022/03/18 06:16:15;;;;;;;6.25;2.97;;;4.20;74.80;;;;;;5048675;28;20029;-60
2022/03/18 06:18:41;;;;;;;4.97;3.00;;;4.20;74.30;;;;;;5049415;28;20067;-60
2022/03/18 06:21:07;;;;;;;9.25;3.55;;;4.20;74.30;;;;;;5049273;28;20057;-60
2022/03/18 06:23:34;;;;;;;5.72;2.97;;;4.20;74.30;;;;;;5048996;28;20032;-60
2022/03/18 06:26:01;;;;;;;7.45;2.85;;;4.20;74.40;;;;;;5046468;28;20119;-60
2022/03/18 06:28:27;;;;;;;5.90;3.15;;;4.20;74.40;;;;;;5033630;28;20018;-60
2022/03/18 06:30:53;;;;;;;7.78;3.25;;;4.20;74.40;;;;;;5043868;28;20041;-60
2022/03/18 06:33:19;;;;;;;10.48;2.80;;;4.30;74.50;;;;;;5049286;28;20368;-60
2022/03/18 06:35:45;;;;;;;5.32;2.95;;;4.30;74.50;;;;;;5048781;28;20075;-60
2022/03/18 06:38:10;;;;;;;7.43;2.95;;;4.30;74.50;;;;;;5048806;28;20045;-60
2022/03/18 06:40:36;;;;;;;7.15;3.83;;;4.30;74.60;;;;;;5048070;28;20025;-63
2022/03/18 06:43:02;;;;;;;10.65;4.15;;;4.40;74.70;;;;;;5048560;28;20029;-62
2022/03/18 06:45:27;;;;;;;8.15;3.85;;;4.40;74.70;;;;;;5047329;28;20181;-62
2022/03/18 06:47:53;;;;;;;4.88;3.13;;;4.40;74.90;;;;;;5030729;28;20124;-62
2022/03/18 06:50:20;;;;;;;6.45;2.88;;;4.50;75.00;;;;;;5046553;28;20162;-62
2022/03/18 06:52:46;;;;;;;9.88;4.15;;;4.50;75.00;;;;;;5048216;28;20200;-60
2022/03/18 06:55:12;;;;;;;9.75;3.10;;;4.50;75.00;;;;;;5038290;28;20112;-59
2022/03/18 06:57:37;;;;;;;6.47;3.13;;;4.60;75.10;;;;;;5040131;28;20025;-65
2022/03/18 07:00:04;;;;;;;9.70;3.42;;;4.70;75.30;;;;;;5072763;28;20503;-64
2022/03/18 07:02:29;;;;;;;7.07;3.10;;;4.70;75.30;;;;;;5042103;28;20072;-65
2022/03/18 07:04:55;;;;;;;7.55;3.38;;;4.80;75.50;;;;;;5046735;28;20055;-65
2022/03/18 07:07:21;;;;;;;6.45;3.53;;;4.80;75.60;;;;;;5047936;28;20498;-64
2022/03/18 07:09:46;;;;;;;7.45;3.97;;;4.90;75.90;;;;;;5045839;28;20606;-65
2022/03/18 07:12:12;;;;;;;8.25;4.05;;;4.90;75.90;;;;;;5033114;28;20038;-65
2022/03/18 07:14:38;;;;;;;10.75;4.40;;;5.00;75.90;;;;;;5050835;28;20025;-64
2022/03/18 07:19:48;;;;;;;9.50;3.63;;;5.10;75.70;;;;;;5040362;28;20145;-65
2022/03/18 07:22:13;;;;;;;6.63;3.22;;;5.20;75.80;;;;;;5044171;28;20069;-64
2022/03/18 07:24:39;;;;;;;8.13;3.50;;;5.30;75.80;;;;;;5030655;28;20064;-64
2022/03/18 07:27:05;;;;;;;9.70;4.22;;;5.40;75.80;;;;;;5047998;28;20029;-59
2022/03/18 07:29:31;;;;;;;6.85;2.70;;;5.40;75.70;;;;;;5042378;28;20033;-59
2022/03/18 07:31:57;;;;;;;12.77;3.58;;;5.50;75.70;;;;;;5034175;28;20057;-58
2022/03/18 07:34:22;;;;;;;8.50;3.05;;;5.60;75.60;;;;;;5043031;28;20025;-60
2022/03/18 07:36:49;;;;;;;6.32;2.85;;;5.70;75.60;;;;;;5036698;28;20079;-60
2022/03/18 07:39:14;;;;;;;6.22;2.80;;;5.80;75.60;;;;;;5039612;28;20033;-60
2022/03/18 07:41:40;;;;;;;11.38;3.53;;;5.80;75.50;;;;;;5040919;28;20071;-65
2022/03/18 07:44:06;;;;;;;7.63;2.75;;;5.90;75.40;;;;;;5038696;28;20040;-67
2022/03/18 07:46:32;;;;;;;9.82;3.42;;;6.00;75.40;;;;;;5029547;28;20037;-64
2022/03/18 07:48:57;;;;;;;5.32;2.90;;;6.10;75.40;;;;;;5040405;28;20048;-64
2022/03/18 07:51:23;;;;;;;9.63;3.42;;;6.20;75.50;;;;;;5036761;28;20033;-64
2022/03/18 07:53:49;;;;;;;6.25;2.72;;;6.20;75.40;;;;;;5038795;28;20013;-64
2022/03/18 07:56:15;;;;;;;6.10;2.80;;;6.30;75.50;;;;;;5037778;28;20044;-65
2022/03/18 07:58:41;;;;;;;9.73;3.20;;;6.40;75.60;;;;;;5069748;28;20553;-64
2022/03/18 08:01:06;;;;;;;6.22;2.63;;;6.40;75.50;;;;;;5039287;28;20048;-65
2022/03/18 08:03:32;;;;;;;9.25;2.58;;;6.50;75.40;;;;;;5046394;28;20052;-64
2022/03/18 08:05:58;;;;;;;4.05;2.78;;;6.60;75.40;;;;;;5039652;28;20224;-65
2022/03/18 08:08:24;;;;;;;8.27;3.65;;;6.60;75.30;;;;;;5042068;28;20496;-64
2022/03/18 08:10:51;;;;;;;11.27;4.03;;;6.70;75.30;;;;;;5041601;28;20051;-64
2022/03/18 08:13:17;;;;;;;8.45;3.80;;;6.70;75.20;;;;;;5051271;28;20389;-65
2022/03/18 08:15:44;;;;;;;8.18;3.05;;;6.80;75.30;;;;;;5041990;28;20035;-59
2022/03/18 08:18:10;;;;;;;10.77;3.00;;;6.90;75.40;;;;;;5032045;28;20512;-59
2022/03/18 08:20:40;;;;;;;3.58;2.33;;;6.90;75.40;;;;;;5050553;28;20033;-59
2022/03/18 08:23:14;;;;;;;4.78;2.42;;;7.00;75.20;;;;;;5033679;28;20044;-60
2022/03/18 08:25:41;;;;;;;5.65;2.85;;;7.10;75.20;;;;;;5042288;28;20040;-57
2022/03/18 08:28:07;;;;;;;6.90;2.75;;;7.10;75.00;;;;;;5042518;28;20487;-59
2022/03/18 08:30:33;;;;;;;10.05;3.60;;;7.20;74.80;;;;;;5044696;28;20028;-59
2022/03/18 08:32:59;;;;;;;4.88;2.20;;;7.20;74.50;;;;;;5040894;28;20045;-59
2022/03/18 08:35:25;;;;;;;8.73;2.70;;;7.30;74.40;;;;;;5048811;28;20021;-60
2022/03/18 08:37:57;;;;;;;5.80;2.45;;;7.40;74.20;;;;;;5049001;28;20090;-61
2022/03/18 08:40:28;;;;;;;3.35;2.17;;;7.50;74.00;;;;;;5044813;28;20032;-64
2022/03/18 08:42:55;;;;;;;4.07;2.17;;;7.60;73.70;;;;;;5048467;28;20067;-64
2022/03/18 08:45:21;;;;;;;4.78;2.20;;;7.70;73.00;;;;;;5057389;28;20033;-64
2022/03/18 08:47:47;;;;;;;3.47;2.40;;;7.80;72.80;;;;;;5058648;28;20071;-64
2022/03/18 08:50:13;;;;;;;9.13;2.83;;;7.90;72.50;;;;;;5047736;28;20116;-63
2022/03/18 08:52:39;;;;;;;8.60;2.40;;;8.00;72.80;;;;;;5045030;28;20029;-59
2022/03/18 08:55:07;;;;;;;2.83;2.47;;;8.10;71.70;;;;;;5040281;28;20033;-59
2022/03/18 08:57:35;;;;;;;2.72;1.70;;;8.20;71.60;;;;;;5035591;28;20827;-59
2022/03/18 09:00:01;;;;;;;4.95;1.90;;;8.30;71.30;;;;;;5042072;28;20056;-58
2022/03/18 09:02:27;;;;;;;6.13;1.52;;;8.40;70.90;;;;;;5038526;28;20087;-58
2022/03/18 09:04:52;;;;;;;5.35;2.40;;;8.50;70.60;;;;;;5043665;28;20092;-58
2022/03/18 09:07:19;;;;;;;2.60;1.50;;;8.60;70.30;;;;;;5046444;28;20440;-59
2022/03/18 09:09:45;;;;;;;5.22;2.20;;;8.70;69.80;;;;;;5041210;28;20493;-64
2022/03/18 09:12:10;;;;;;;3.58;1.90;;;8.80;68.90;;;;;;5045789;28;20086;-64
2022/03/18 09:14:36;;;;;;;3.33;1.85;;;8.90;68.80;;;;;;5043730;28;20033;-64
2022/03/18 09:17:02;;;;;;;1.88;1.27;;;9.00;68.60;;;;;;5041051;28;20022;-59
2022/03/18 09:19:28;;;;;;;3.60;1.75;;;9.10;68.40;;;;;;5041288;28;20040;-59
2022/03/18 09:21:54;;;;;;;4.38;1.63;;;9.20;67.60;;;;;;5044929;28;20392;-59
2022/03/18 09:24:19;;;;;;;3.35;1.80;;;9.20;66.90;;;;;;5047838;28;20037;-59
2022/03/18 09:26:45;;;;;;;3.78;1.35;;;9.30;66.90;;;;;;5052995;28;20560;-60
2022/03/18 09:29:12;;;;;;;1.60;1.40;;;9.40;66.40;;;;;;5055633;28;20030;-60
2022/03/18 09:31:37;;;;;;;2.80;1.85;;;9.50;66.20;;;;;;5043891;28;20041;-59
2022/03/18 09:34:03;;;;;;;4.97;1.90;;;9.70;66.00;;;;;;5043538;28;20403;-65
2022/03/18 09:36:31;;;;;;;5.88;1.92;;;9.80;65.90;;;;;;5048860;28;20024;-64
2022/03/18 09:38:57;;;;;;;3.17;1.75;;;9.90;65.60;;;;;;5039697;28;20028;-64
2022/03/18 09:41:22;;;;;;;5.50;1.80;;;10.00;65.20;;;;;;5050655;28;20550;-59
2022/03/18 09:43:48;;;;;;;3.28;1.42;;;10.20;64.50;;;;;;5048624;28;20059;-60
2022/03/18 09:46:17;;;;;;;3.80;1.35;;;10.30;64.30;;;;;;5046721;28;20154;-65
2022/03/18 09:48:43;;;;;;;3.38;1.80;;;10.40;64.20;;;;;;5044780;28;20087;-65
2022/03/18 09:51:09;;;;;;;4.55;1.67;;;10.50;63.80;;;;;;5039910;28;20030;-65
2022/03/18 09:53:35;;;;;;;2.35;1.25;;;10.60;63.50;;;;;;5047130;28;20029;-65
2022/03/18 09:56:03;;;;;;;3.33;1.50;;;10.80;63.30;;;;;;5045680;28;20032;-65
2022/03/18 09:58:29;;;;;;;2.10;1.45;;;10.90;62.90;;;;;;5043756;28;20112;-65
2022/03/18 10:01:01;;;;;;;5.68;2.17;;;11.00;62.70;;;;;;5051706;28;20024;-65
2022/03/18 10:03:44;;;;;;;3.03;1.42;;;11.10;62.40;;;;;;5045028;28;20054;-65
2022/03/18 10:06:13;;;;;;;3.45;1.60;;;11.20;61.90;;;;;;5050050;28;20054;-65
2022/03/18 10:08:44;;;;;;;6.15;1.75;;;11.30;61.30;;;;;;5044070;28;20468;-64
2022/03/18 10:11:24;;;;;;;3.28;1.50;;;11.40;61.10;;;;;;5046064;28;20552;-64
2022/03/18 10:14:01;;;;;;;1.83;1.48;;;11.50;60.90;;;;;;5042964;28;20341;-65
2022/03/18 10:16:33;;;;;;;4.05;2.13;;;11.60;60.80;;;;;;5041525;28;20021;-64
2022/03/18 10:19:00;;;;;;;2.58;1.50;;;11.70;60.00;;;;;;5040898;28;20499;-65
2022/03/18 10:21:28;;;;;;;4.28;1.70;;;11.80;59.90;;;;;;5041377;28;20475;-65
2022/03/18 10:24:10;;;;;;;4.75;1.85;;;11.90;59.30;;;;;;5045914;28;20545;-64
2022/03/18 10:26:38;;;;;;;3.20;1.88;;;12.00;59.30;;;;;;5044979;28;20041;-65
2022/03/18 10:29:05;;;;;;;7.68;1.55;;;12.10;59.10;;;;;;5043462;28;20041;-60
2022/03/18 10:31:31;;;;;;;1.95;1.30;;;12.30;59.00;;;;;;5044962;28;20124;-60
2022/03/18 10:37:05;;;;;;;377.08;52.15;;;12.50;57.70;;;;;;5044134;28;20036;-60
2022/03/18 10:39:45;;;;;;;5.97;2.65;;;12.60;58.10;;;;;;5045555;28;20506;-59
2022/03/18 10:42:21;;;;;;;5.45;2.10;;;12.70;57.60;;;;;;5044084;28;20467;-60
2022/03/18 10:44:55;;;;;;;5.80;2.30;;;13.00;57.80;;;;;;5045463;28;20060;-60
2022/03/18 10:47:35;;;;;;;4.00;2.00;;;13.10;57.20;;;;;;5042210;28;20173;-61
2022/03/18 10:50:10;;;;;;;110.85;37.58;;;13.30;56.70;;;;;;5047680;28;20504;-60
2022/03/18 10:52:48;;;;;;;6.93;2.83;;;13.40;55.60;;;;;;5047971;28;20037;-60
2022/03/18 10:55:31;;;;;;;8.75;2.83;;;13.40;55.50;;;;;;5034754;28;20021;-59
2022/03/18 10:58:02;;;;;;;10.30;3.45;;;13.50;55.90;;;;;;5041490;28;20029;-59
2022/03/18 11:00:35;;;;;;;7.07;2.93;;;13.60;55.40;;;;;;5038140;28;20036;-59
2022/03/18 11:03:02;;;;;;;8.40;2.97;;;13.70;55.60;;;;;;5053072;28;20610;-59
2022/03/18 11:05:39;;;;;;;10.55;3.10;;;13.80;55.40;;;;;;5039034;28;20048;-59
2022/03/18 11:08:07;;;;;;;7.63;2.80;;;13.90;55.50;;;;;;5042384;28;20384;-59
2022/03/18 11:13:29;;;;;;;8.13;3.00;;;14.20;55.00;;;;;;5041399;28;20110;-59
2022/03/18 11:15:55;;;;;;;9.45;3.05;;;14.30;54.70;;;;;;5042174;28;20451;-59
2022/03/18 11:18:21;;;;;;;7.13;3.22;;;14.40;54.50;;;;;;5041345;28;20040;-59
2022/03/18 11:20:50;;;;;;;7.53;3.22;;;14.50;54.40;;;;;;5043237;28;20315;-58
2022/03/18 11:23:20;;;;;;;7.80;3.22;;;14.60;54.30;;;;;;5046516;28;20480;-59
2022/03/18 11:25:54;;;;;;;7.80;3.10;;;14.70;54.20;;;;;;5046612;28;20112;-59
2022/03/18 11:28:21;;;;;;;7.97;3.05;;;14.80;53.20;;;;;;5036513;28;20033;-64
2022/03/18 11:31:00;;;;;;;11.32;3.55;;;14.90;52.90;;;;;;5037370;28;20037;-64
2022/03/18 11:33:26;;;;;;;9.55;3.28;;;14.90;52.70;;;;;;5048373;28;20018;-59
2022/03/18 11:35:54;;;;;;;7.35;3.38;;;15.00;52.90;;;;;;5039360;28;20025;-58
2022/03/18 11:38:23;;;;;;;7.63;2.80;;;15.10;53.40;;;;;;5037100;28;20029;-62
2022/03/18 11:41:01;;;;;;;6.60;2.97;;;15.20;53.20;;;;;;5047222;28;20090;-63
2022/03/18 11:43:42;;;;;;;7.82;2.65;;;15.40;52.80;;;;;;5035408;28;20029;-63
2022/03/18 11:46:13;;;;;;;8.82;3.28;;;15.50;52.60;;;;;;5039507;28;20108;-59
2022/03/18 11:48:46;;;;;;;6.72;3.08;;;15.60;51.80;;;;;;5048486;28;20450;-64
2022/03/18 11:51:23;;;;;;;9.23;3.53;;;15.60;51.70;;;;;;5048378;28;20028;-64
2022/03/18 11:53:51;;;;;;;6.40;3.50;;;15.70;51.90;;;;;;5034141;28;20056;-62
2022/03/18 11:56:20;;;;;;;9.10;3.47;;;15.70;51.10;;;;;;5058934;28;20051;-61
2022/03/18 11:58:46;;;;;;;7.80;3.10;;;15.80;51.20;;;;;;5044534;28;20469;-61
2022/03/18 12:01:40;;;;;;;6.85;3.00;;;15.90;51.20;;;;;;5047012;28;20036;-60
2022/03/18 12:04:06;;;;;;;8.52;3.28;;;16.10;50.70;;;;;;5054730;28;20361;-66
2022/03/18 12:06:32;;;;;;;9.80;3.40;;;16.20;50.70;;;;;;5050195;28;20115;-65
2022/03/18 12:09:00;;;;;;;6.63;3.25;;;16.40;49.30;;;;;;5043451;28;20120;-66
2022/03/18 12:11:36;;;;;;;8.68;3.20;;;16.40;48.60;;;;;;5048633;28;20024;-66
2022/03/18 12:14:03;;;;;;;5.63;3.00;;;16.40;49.00;;;;;;5034853;28;20021;-66
2022/03/18 12:16:30;;;;;;;4.25;2.38;;;16.60;49.70;;;;;;5039452;28;20028;-61
2022/03/18 12:19:00;;;;;;;8.80;3.10;;;16.80;49.20;;;;;;5051852;28;20388;-65
2022/03/18 12:21:34;;;;;;;7.28;2.70;;;16.90;48.90;;;;;;5050036;28;20021;-60
2022/03/18 12:24:05;;;;;;;5.68;3.20;;;17.10;48.50;;;;;;5031348;28;20515;-60
2022/03/18 12:26:30;;;;;;;4.97;2.65;;;17.30;48.50;;;;;;5033156;28;20464;-60
2022/03/18 12:28:56;;;;;;;8.48;2.92;;;17.40;48.60;;;;;;5052481;28;20085;-61
2022/03/18 12:31:22;;;;;;;5.30;2.90;;;17.60;48.40;;;;;;5044115;28;20033;-60
2022/03/18 12:33:57;;;;;;;4.47;2.10;;;17.70;47.80;;;;;;5060992;28;20036;-60
2022/03/18 12:36:27;;;;;;;5.60;2.40;;;17.70;47.70;;;;;;5049482;28;20031;-66
2022/03/18 12:39:07;;;;;;;5.75;2.65;;;17.80;47.50;;;;;;5048830;28;20123;-66
2022/03/18 12:41:33;;;;;;;6.65;2.80;;;17.90;47.10;;;;;;5049786;28;20020;-66
2022/03/18 12:43:59;;;;;;;9.75;3.10;;;18.00;46.80;;;;;;5048569;28;20065;-66
2022/03/18 12:46:25;;;;;;;6.30;3.15;;;18.10;46.10;;;;;;5050102;28;20064;-66
2022/03/18 12:48:51;;;;;;;5.90;2.60;;;18.20;46.00;;;;;;5053530;28;20032;-65
2022/03/18 12:51:17;;;;;;;7.18;2.80;;;18.30;46.40;;;;;;5032337;28;20070;-66
2022/03/18 12:53:46;;;;;;;6.38;2.65;;;18.40;45.90;;;;;;5038002;28;20045;-66
2022/03/18 12:56:22;;;;;;;4.20;1.70;;;18.50;45.90;;;;;;5050035;28;20021;-66
2022/03/18 12:58:48;;;;;;;6.13;1.70;;;18.60;45.30;;;;;;5048093;28;20132;-66
2022/03/18 13:01:14;;;;;;;3.10;1.75;;;18.70;44.70;;;;;;5047343;28;20104;-65
2022/03/18 13:03:48;;;;;;;5.45;2.53;;;18.70;44.90;;;;;;5048196;28;20025;-65
2022/03/18 13:06:22;;;;;;;5.10;1.70;;;18.80;44.60;;;;;;5049080;28;20025;-65
2022/03/18 13:09:15;;;;;;;4.60;2.30;;;18.80;44.30;;;;;;5047731;28;20031;-66
2022/03/18 13:11:41;;;;;;;3.35;1.90;;;18.80;44.30;;;;;;5043981;28;20049;-65
2022/03/18 13:14:07;;;;;;;4.05;1.83;;;18.90;44.30;;;;;;5045254;28;20029;-65
2022/03/18 13:16:37;;;;;;;4.82;2.03;;;19.00;44.40;;;;;;5047381;28;20043;-59
2022/03/18 13:19:04;;;;;;;4.53;2.17;;;18.90;43.90;;;;;;5047035;28;20036;-60
2022/03/18 13:21:42;;;;;;;5.60;1.95;;;18.90;43.70;;;;;;5049221;28;20035;-60